Decoded Metar for KLEW (AUBURN/LEWISTON in ME, USA) (IATA:LEW) | Meteo·Mobile Aviation Weather
aviador You're here:

KLEW Decoded Metar

AUBURN/LEWISTON in ME, USA
Report Time2019-03-21 20:56:00
UTC Time2019-03-21 21:59:52
Flight Rules vfr VFR
Wind150° at 09 kt
W.Decomp.*RWY 17: 9.0 kt HW 0.5 kt LCW
RWY 22: 5.4 kt HW 7.2 kt LCW
W.Rank150° ranks 11
Current wind is above 150° avg. (5.6)
Visibility9999 m
Phenomena:N/A
Clouds:Overcast 055 Hf
Expected CloudBase > 3,200 ft AGL from Temp-Dew spread
Ceiling5,500 ft
Temp06°C (ISA -8)
Dew Point-2°C (57% RH)
AAT0.5°C
QNH1019 hPa
Density Alt-856 ft
Elevation289 ft
Report Wrong Elevation
Raw Report
KLEW 212056Z AUTO 15009KT 10SM OVC055 06/M02 A3009 RMK AO2 SLP207
T00561022 55007=

Extra information for KLEW:More info

Metar Taf Metar & Taf Last 4 Metars F.Rules Stats Wind Profile Meteogram Temp Stats Airport Information Weather charts Add Link Nearby VenuesMetar ALERT Operation Metar Decoded Social comments

AIRNAV info for KLEW